Time;durP1;ratioP1;P1;durP2;ratioP2;P2;SDS_P1;SDS_P2;PMS_P1;PMS_P2;Temp;Humidity;BMP_temperature;BMP_pressure;BME280_temperature;BME280_humidity;BME280_pressure;Samples;Min_cycle;Max_cycle;Signal;HPM_P1;HPM_P2
2022/03/20 00:00:15;;;;;;;11.25;5.38;;;12.10;40.70;;;;;;4935227;28;20042;-82
2022/03/20 00:02:45;;;;;;;8.05;5.18;;;12.10;40.60;;;;;;4965068;28;20100;-81
2022/03/20 00:05:11;;;;;;;8.85;5.50;;;12.10;40.70;;;;;;4965575;28;20042;-81
2022/03/20 00:07:38;;;;;;;7.50;5.20;;;12.10;40.70;;;;;;4965483;28;20031;-82
2022/03/20 00:10:06;;;;;;;8.52;5.07;;;12.10;40.70;;;;;;4966033;28;20077;-79
2022/03/20 00:12:37;;;;;;;8.00;5.43;;;12.00;40.70;;;;;;4966595;28;20092;-82
2022/03/20 00:15:04;;;;;;;13.80;5.55;;;12.00;40.70;;;;;;4950131;28;20394;-80
2022/03/20 00:17:30;;;;;;;8.65;5.63;;;12.10;40.80;;;;;;4958650;28;20130;-82
2022/03/20 00:19:57;;;;;;;17.35;6.03;;;12.00;40.70;;;;;;4966498;28;20050;-82
2022/03/20 00:22:24;;;;;;;9.85;5.55;;;12.00;40.70;;;;;;4963033;28;20050;-79
2022/03/20 00:24:50;;;;;;;7.93;5.05;;;12.00;40.80;;;;;;4930634;28;20042;-81
2022/03/20 00:27:16;;;;;;;8.40;5.30;;;12.00;40.80;;;;;;4978147;28;20494;-81
2022/03/20 00:29:43;;;;;;;9.45;5.75;;;12.00;40.80;;;;;;4956594;28;20045;-80
2022/03/20 00:32:12;;;;;;;9.45;5.32;;;12.00;40.90;;;;;;4965419;28;20160;-81
2022/03/20 00:34:38;;;;;;;9.45;5.35;;;12.00;40.90;;;;;;4960831;28;20517;-80
2022/03/20 00:37:06;;;;;;;9.25;6.13;;;12.00;41.00;;;;;;4947665;28;20039;-82
2022/03/20 00:39:34;;;;;;;9.70;5.72;;;12.00;41.00;;;;;;4967190;28;20038;-82
2022/03/20 00:42:02;;;;;;;11.20;6.03;;;12.00;41.00;;;;;;4967495;28;20376;-83
2022/03/20 00:44:28;;;;;;;7.45;5.03;;;12.00;41.00;;;;;;4967100;28;20088;-82
2022/03/20 00:46:54;;;;;;;10.75;5.97;;;11.90;41.00;;;;;;4958036;28;20031;-82
2022/03/20 00:49:20;;;;;;;8.57;5.95;;;12.00;41.00;;;;;;4948964;28;20028;-83
2022/03/20 00:51:46;;;;;;;10.40;5.72;;;11.90;41.00;;;;;;4966807;28;20452;-82
2022/03/20 00:54:12;;;;;;;9.63;6.05;;;11.90;41.00;;;;;;4949353;28;20043;-81
2022/03/20 00:56:38;;;;;;;11.32;6.00;;;11.90;41.00;;;;;;4959001;28;20062;-81
2022/03/20 00:59:05;;;;;;;11.02;6.40;;;11.90;41.10;;;;;;4976153;28;20082;-81
2022/03/20 01:01:32;;;;;;;8.82;5.88;;;12.00;41.30;;;;;;4963393;28;20035;-80
2022/03/20 01:03:59;;;;;;;10.85;6.10;;;11.90;41.30;;;;;;4965360;28;20043;-78
2022/03/20 01:06:25;;;;;;;10.13;5.72;;;11.90;41.30;;;;;;4964677;28;20058;-82
2022/03/20 01:08:51;;;;;;;12.98;6.80;;;11.90;41.30;;;;;;4967193;28;20521;-81
2022/03/20 01:11:17;;;;;;;10.10;6.15;;;11.90;41.40;;;;;;4963177;28;20034;-81
2022/03/20 01:13:43;;;;;;;10.27;6.07;;;11.90;41.40;;;;;;4964743;28;20444;-80
2022/03/20 01:16:09;;;;;;;9.10;6.55;;;11.90;41.50;;;;;;4964909;28;20030;-82
2022/03/20 01:18:36;;;;;;;9.48;6.35;;;11.90;41.50;;;;;;4965543;28;20035;-81
2022/03/20 01:21:02;;;;;;;9.55;5.95;;;11.90;41.60;;;;;;4963550;28;20415;-79
2022/03/20 01:23:29;;;;;;;8.95;6.15;;;11.90;41.60;;;;;;4964785;28;20042;-81
2022/03/20 01:25:55;;;;;;;10.38;6.45;;;11.90;41.70;;;;;;4948077;28;20563;-81
2022/03/20 01:28:23;;;;;;;12.65;6.07;;;11.90;41.80;;;;;;4963576;28;20121;-81
2022/03/20 01:30:49;;;;;;;9.05;6.18;;;11.90;41.80;;;;;;4960010;28;20066;-81
2022/03/20 01:33:16;;;;;;;9.10;5.82;;;11.90;41.80;;;;;;4964935;28;20038;-79
2022/03/20 01:35:43;;;;;;;10.40;6.35;;;11.90;41.80;;;;;;4963952;28;20085;-78
2022/03/20 01:38:10;;;;;;;9.05;5.95;;;11.80;41.80;;;;;;4964744;28;20035;-81
2022/03/20 01:40:36;;;;;;;8.98;5.97;;;11.90;41.80;;;;;;4965538;28;20418;-81
2022/03/20 01:43:03;;;;;;;9.13;6.07;;;11.80;41.80;;;;;;4963383;28;20061;-81
2022/03/20 01:45:30;;;;;;;11.10;5.88;;;11.80;41.90;;;;;;4964597;28;20047;-83
2022/03/20 01:47:56;;;;;;;9.60;5.95;;;11.80;41.80;;;;;;4964710;28;20441;-82
2022/03/20 01:50:27;;;;;;;8.52;6.13;;;11.80;41.80;;;;;;4965087;28;20039;-81
2022/03/20 01:52:54;;;;;;;12.75;7.07;;;11.80;41.90;;;;;;4964110;28;20031;-81
2022/03/20 01:55:24;;;;;;;10.45;6.57;;;11.80;41.90;;;;;;4961711;28;20039;-81
2022/03/20 01:57:51;;;;;;;10.43;6.80;;;11.80;42.00;;;;;;4976172;28;20485;-80
2022/03/20 02:00:19;;;;;;;9.80;5.93;;;11.80;42.00;;;;;;4961339;28;20488;-79
2022/03/20 02:02:46;;;;;;;8.25;6.05;;;11.80;42.00;;;;;;4962408;28;20045;-82
2022/03/20 02:05:13;;;;;;;9.05;6.13;;;11.80;42.00;;;;;;4964057;28;20564;-81
2022/03/20 02:07:40;;;;;;;8.32;5.85;;;11.80;42.10;;;;;;4964191;28;20123;-80
2022/03/20 02:10:08;;;;;;;11.73;6.43;;;11.80;42.00;;;;;;4979477;28;20066;-82
2022/03/20 02:12:36;;;;;;;10.27;5.88;;;11.80;42.00;;;;;;4964324;28;20477;-82
2022/03/20 02:15:04;;;;;;;11.70;6.85;;;11.80;41.90;;;;;;4978519;28;20038;-81
2022/03/20 02:17:30;;;;;;;11.18;7.05;;;11.70;41.80;;;;;;4959808;28;20176;-82
2022/03/20 02:20:04;;;;;;;10.32;6.03;;;11.70;41.80;;;;;;4954920;28;20039;-83
2022/03/20 02:22:31;;;;;;;12.02;7.30;;;11.70;41.90;;;;;;4961395;28;20423;-83
2022/03/20 02:25:05;;;;;;;9.68;6.32;;;11.70;41.90;;;;;;4965004;28;20035;-82
2022/03/20 02:27:32;;;;;;;12.48;6.35;;;11.70;41.90;;;;;;4963990;28;20138;-81
2022/03/20 02:30:01;;;;;;;9.90;6.53;;;11.70;41.90;;;;;;4964330;28;20035;-80
2022/03/20 02:32:31;;;;;;;11.43;6.45;;;11.70;42.00;;;;;;4962592;28;20382;-79
2022/03/20 02:35:01;;;;;;;11.73;6.45;;;11.70;41.90;;;;;;4931392;28;20456;-79
2022/03/20 02:37:28;;;;;;;10.85;6.30;;;11.70;42.00;;;;;;4963552;28;20039;-78
2022/03/20 02:39:56;;;;;;;9.40;5.78;;;11.60;42.00;;;;;;4963621;28;20093;-79
2022/03/20 02:42:23;;;;;;;9.85;6.57;;;11.60;42.40;;;;;;4963165;28;20039;-80
2022/03/20 02:45:06;;;;;;;12.65;6.70;;;11.70;43.00;;;;;;4964045;28;20038;-78
2022/03/20 02:47:34;;;;;;;11.60;5.95;;;11.70;43.40;;;;;;4963908;28;20051;-79
2022/03/20 02:50:03;;;;;;;9.18;6.10;;;11.70;43.80;;;;;;4962342;28;20130;-80
2022/03/20 02:52:42;;;;;;;9.77;6.13;;;11.70;44.00;;;;;;4975940;28;20486;-79
2022/03/20 02:55:08;;;;;;;9.27;6.18;;;11.70;44.10;;;;;;4957605;28;20089;-80
2022/03/20 02:57:34;;;;;;;8.95;6.07;;;11.70;44.30;;;;;;4964402;28;20113;-78
2022/03/20 03:00:03;;;;;;;10.77;6.50;;;11.70;44.30;;;;;;4962844;28;20039;-77
2022/03/20 03:02:33;;;;;;;8.30;5.13;;;11.70;44.30;;;;;;4962578;28;20047;-78
2022/03/20 03:05:00;;;;;;;9.65;6.22;;;11.70;44.40;;;;;;4967018;28;20043;-79
2022/03/20 03:07:28;;;;;;;8.75;6.00;;;11.70;44.60;;;;;;4968109;28;20088;-80
2022/03/20 03:12:38;;;;;;;8.32;5.70;;;11.70;44.60;;;;;;4968176;28;20073;-80
2022/03/20 03:15:20;;;;;;;8.90;6.22;;;11.70;44.70;;;;;;4963524;28;20556;-80
2022/03/20 03:17:49;;;;;;;10.52;5.82;;;11.80;44.70;;;;;;4948664;28;20035;-80
2022/03/20 03:20:19;;;;;;;8.80;6.07;;;11.80;44.80;;;;;;4954164;28;20053;-77
2022/03/20 03:22:46;;;;;;;8.77;6.18;;;11.70;44.80;;;;;;4963137;28;20382;-78
2022/03/20 03:25:12;;;;;;;9.77;5.85;;;11.70;44.80;;;;;;4961736;28;20834;-79
2022/03/20 03:27:38;;;;;;;11.00;6.18;;;11.80;44.90;;;;;;4944659;28;20031;-80
2022/03/20 03:30:05;;;;;;;9.32;5.72;;;11.80;44.80;;;;;;4959287;28;20544;-77
2022/03/20 03:32:31;;;;;;;11.68;6.15;;;11.80;44.90;;;;;;4963911;28;20035;-80
2022/03/20 03:37:42;;;;;;;9.55;5.90;;;11.80;45.00;;;;;;4950148;28;20046;-78
2022/03/20 03:40:09;;;;;;;9.00;6.15;;;11.80;45.00;;;;;;4965996;28;20034;-78
2022/03/20 03:42:36;;;;;;;9.70;6.18;;;11.80;45.00;;;;;;4973471;28;20034;-79
2022/03/20 03:45:03;;;;;;;9.38;6.13;;;11.80;45.10;;;;;;4964124;28;20038;-79
2022/03/20 03:47:29;;;;;;;10.07;6.18;;;11.80;45.10;;;;;;4966584;28;20490;-78
2022/03/20 03:49:55;;;;;;;8.27;5.88;;;11.80;45.20;;;;;;4965588;28;20070;-77
2022/03/20 03:52:21;;;;;;;9.90;6.03;;;11.80;45.20;;;;;;4964532;28;20045;-78
2022/03/20 03:54:47;;;;;;;12.30;6.82;;;11.80;45.40;;;;;;4965695;28;20046;-78
2022/03/20 03:57:13;;;;;;;10.93;6.47;;;11.80;45.40;;;;;;4964733;28;20192;-79
2022/03/20 03:59:41;;;;;;;8.10;5.78;;;11.80;45.40;;;;;;4947446;28;20043;-77
2022/03/20 04:02:07;;;;;;;9.07;5.93;;;11.80;45.50;;;;;;4964203;28;20054;-78
2022/03/20 04:04:33;;;;;;;10.63;6.55;;;11.80;45.60;;;;;;4976047;28;20039;-78
2022/03/20 04:06:59;;;;;;;10.07;6.35;;;11.80;45.50;;;;;;4965729;28;20445;-78
2022/03/20 04:09:25;;;;;;;12.57;7.40;;;11.90;45.70;;;;;;4964563;28;20043;-77
2022/03/20 04:11:52;;;;;;;12.05;6.07;;;11.90;45.70;;;;;;4966031;28;20047;-79
2022/03/20 04:14:20;;;;;;;10.65;6.00;;;11.90;45.60;;;;;;4965312;28;20035;-76
2022/03/20 04:16:46;;;;;;;8.75;6.15;;;11.90;45.70;;;;;;4976499;28;20031;-80
2022/03/20 04:19:12;;;;;;;10.25;6.13;;;11.90;45.70;;;;;;4964448;28;20031;-80
2022/03/20 04:21:38;;;;;;;8.13;5.70;;;11.90;45.70;;;;;;4947279;28;20118;-80
2022/03/20 04:24:05;;;;;;;12.13;6.60;;;11.90;46.40;;;;;;4961633;28;20390;-78
2022/03/20 04:26:33;;;;;;;8.27;6.43;;;11.90;45.90;;;;;;4965515;28;20567;-81
2022/03/20 04:28:58;;;;;;;8.63;6.13;;;11.90;45.80;;;;;;4957787;28;20041;-79
2022/03/20 04:31:24;;;;;;;9.27;6.25;;;11.90;46.00;;;;;;4947152;28;20034;-79
2022/03/20 04:33:56;;;;;;;11.00;6.15;;;11.90;45.90;;;;;;4965655;28;20434;-80
2022/03/20 04:36:24;;;;;;;11.18;6.28;;;11.90;46.00;;;;;;4945913;28;20085;-78
2022/03/20 04:38:51;;;;;;;11.55;6.50;;;12.00;46.10;;;;;;4960093;28;20030;-79
2022/03/20 04:41:18;;;;;;;10.45;6.63;;;12.00;46.20;;;;;;4965055;28;20031;-79
2022/03/20 04:43:49;;;;;;;11.10;6.60;;;12.00;46.20;;;;;;4963167;28;20078;-79
2022/03/20 04:46:16;;;;;;;8.82;6.18;;;12.00;46.20;;;;;;4965252;28;20724;-78
2022/03/20 04:59:41;;;;;;;9.43;6.28;;;12.00;46.30;;;;;;4963299;28;20440;-80
2022/03/20 05:02:07;;;;;;;10.73;7.10;;;12.10;46.40;;;;;;4964365;28;20038;-79
2022/03/20 05:04:33;;;;;;;9.77;6.97;;;12.10;46.40;;;;;;4974256;28;20092;-79
2022/03/20 05:06:59;;;;;;;11.52;6.45;;;12.10;47.10;;;;;;4965937;28;20034;-80
2022/03/20 05:14:58;;;;;;;10.30;6.53;;;12.10;46.60;;;;;;4964836;28;20035;-80
2022/03/20 05:17:24;;;;;;;8.55;6.38;;;12.10;46.70;;;;;;4963614;28;20043;-79
2022/03/20 05:19:50;;;;;;;10.57;6.78;;;12.20;46.90;;;;;;4964251;28;20035;-81
2022/03/20 05:22:16;;;;;;;10.68;6.75;;;12.10;46.90;;;;;;4962606;28;20043;-81
2022/03/20 05:24:43;;;;;;;9.60;6.45;;;12.20;46.90;;;;;;4945222;28;20046;-79
2022/03/20 05:27:08;;;;;;;12.10;6.93;;;12.20;47.00;;;;;;4960906;28;20030;-82
2022/03/20 05:29:35;;;;;;;10.98;7.00;;;12.20;47.10;;;;;;4964063;28;20050;-81
2022/03/20 05:32:02;;;;;;;8.07;6.50;;;12.20;47.10;;;;;;4963365;28;20069;-79
2022/03/20 05:34:29;;;;;;;10.07;7.50;;;12.20;47.20;;;;;;4965325;28;20504;-81
2022/03/20 05:36:58;;;;;;;9.73;6.55;;;12.30;48.00;;;;;;4964506;28;20037;-79
2022/03/20 05:39:24;;;;;;;9.38;6.45;;;12.30;47.40;;;;;;4945696;28;20521;-81
2022/03/20 05:41:51;;;;;;;9.70;6.60;;;12.40;47.40;;;;;;4958187;28;20043;-82
2022/03/20 05:44:19;;;;;;;16.65;7.07;;;12.50;47.10;;;;;;4963601;28;20122;-81
2022/03/20 05:46:47;;;;;;;9.38;6.00;;;12.70;46.70;;;;;;4962884;28;20501;-80
2022/03/20 05:49:13;;;;;;;8.15;6.00;;;12.80;46.60;;;;;;4963800;28;20030;-80
2022/03/20 05:51:40;;;;;;;7.07;5.40;;;12.90;46.40;;;;;;4964098;28;20031;-80
2022/03/20 05:54:06;;;;;;;10.45;6.05;;;13.00;46.30;;;;;;4963728;28;20039;-80
2022/03/20 05:59:17;;;;;;;7.85;5.78;;;13.20;46.30;;;;;;4943841;28;20035;-81
2022/03/20 06:01:43;;;;;;;8.57;6.00;;;13.30;46.10;;;;;;4949733;28;20042;-80
2022/03/20 06:04:10;;;;;;;9.57;6.07;;;13.40;46.10;;;;;;4965833;28;20034;-81
2022/03/20 06:06:37;;;;;;;8.63;5.13;;;13.50;46.30;;;;;;4966337;28;20027;-79
2022/03/20 06:09:04;;;;;;;7.38;5.78;;;13.60;46.20;;;;;;4966489;28;20089;-83
2022/03/20 06:11:32;;;;;;;11.70;7.47;;;13.70;46.60;;;;;;4967624;28;20053;-83
2022/03/20 06:14:00;;;;;;;15.75;7.75;;;13.70;46.30;;;;;;4964568;28;20035;-83
2022/03/20 06:16:26;;;;;;;12.98;8.13;;;13.90;45.40;;;;;;4964134;28;20035;-83
2022/03/20 06:18:52;;;;;;;16.52;8.90;;;13.90;44.70;;;;;;4964252;28;20041;-80
2022/03/20 06:21:18;;;;;;;15.32;9.20;;;14.00;44.30;;;;;;4963529;28;20031;-83
2022/03/20 06:23:45;;;;;;;13.65;8.60;;;14.10;43.90;;;;;;4961996;28;20058;-80
2022/03/20 06:26:11;;;;;;;11.32;7.85;;;14.10;44.00;;;;;;4963345;28;20043;-77
2022/03/20 06:28:40;;;;;;;11.10;8.00;;;14.30;45.00;;;;;;4963617;28;20074;-78
2022/03/20 06:31:12;;;;;;;13.18;7.72;;;14.50;45.00;;;;;;4960492;28;20046;-80
2022/03/20 06:33:43;;;;;;;12.48;7.30;;;14.70;43.90;;;;;;4976537;28;20062;-81
2022/03/20 06:36:10;;;;;;;10.13;7.10;;;14.80;43.30;;;;;;4961175;28;20041;-78
2022/03/20 06:38:37;;;;;;;11.77;7.05;;;14.90;43.00;;;;;;4946540;28;20130;-79
2022/03/20 06:41:04;;;;;;;10.52;6.05;;;15.10;43.20;;;;;;4962961;28;20118;-79
2022/03/20 06:43:30;;;;;;;12.68;6.10;;;15.20;43.30;;;;;;4954308;28;20050;-79
2022/03/20 06:45:56;;;;;;;8.75;5.60;;;15.40;43.60;;;;;;4965141;28;20039;-80
2022/03/20 06:48:24;;;;;;;9.70;5.72;;;15.50;43.90;;;;;;4963731;28;20038;-78
2022/03/20 06:50:51;;;;;;;9.02;5.82;;;15.60;43.60;;;;;;4965917;28;20424;-80
2022/03/20 06:53:18;;;;;;;9.20;6.18;;;15.70;43.40;;;;;;4947443;28;20402;-79
2022/03/20 06:55:45;;;;;;;12.85;6.45;;;15.80;43.00;;;;;;4933834;28;20035;-80
2022/03/20 06:58:11;;;;;;;10.15;6.03;;;15.90;43.00;;;;;;4968570;28;20089;-80
2022/03/20 07:00:37;;;;;;;9.68;6.20;;;16.00;43.10;;;;;;4969666;28;20117;-81
2022/03/20 07:03:06;;;;;;;10.05;6.50;;;16.20;42.80;;;;;;4954433;28;20050;-79
2022/03/20 07:05:33;;;;;;;9.65;6.57;;;16.20;42.50;;;;;;4958355;28;20410;-81
2022/03/20 07:08:04;;;;;;;10.32;6.60;;;16.30;42.00;;;;;;4956939;28;20042;-80
2022/03/20 07:10:30;;;;;;;10.25;6.45;;;16.30;41.30;;;;;;4952832;28;20596;-79
2022/03/20 07:15:45;;;;;;;11.57;6.43;;;16.40;40.60;;;;;;4971942;28;20043;-79
2022/03/20 07:18:12;;;;;;;14.88;6.65;;;16.40;40.40;;;;;;4972624;28;20092;-80
2022/03/20 07:20:40;;;;;;;10.50;6.40;;;16.40;40.40;;;;;;4971105;28;20062;-80
2022/03/20 07:23:09;;;;;;;14.45;6.53;;;16.40;40.30;;;;;;4971309;28;20049;-80
2022/03/20 07:31:12;;;;;;;10.07;6.57;;;16.50;40.00;;;;;;4969212;28;20125;-84
2022/03/20 07:33:41;;;;;;;11.02;7.00;;;16.50;39.90;;;;;;4966910;28;20038;-83
2022/03/20 07:36:08;;;;;;;11.20;6.70;;;16.50;39.70;;;;;;4965143;28;20663;-80
2022/03/20 07:38:37;;;;;;;10.55;6.40;;;16.50;40.20;;;;;;5043893;28;20387;-81
2022/03/20 07:41:03;;;;;;;14.15;5.70;;;16.50;40.10;;;;;;4964214;28;20421;-81
2022/03/20 07:43:29;;;;;;;12.60;6.93;;;16.60;40.70;;;;;;4966466;28;20516;-83
2022/03/20 07:45:58;;;;;;;12.30;6.22;;;16.70;40.90;;;;;;4966974;28;20046;-82
2022/03/20 07:48:24;;;;;;;10.45;6.28;;;16.80;41.00;;;;;;4965065;28;20034;-85
2022/03/20 07:50:50;;;;;;;11.45;6.22;;;16.80;40.80;;;;;;4965604;28;20039;-81
2022/03/20 07:53:18;;;;;;;12.73;6.53;;;16.80;40.50;;;;;;4976635;28;20508;-81
2022/03/20 07:55:45;;;;;;;13.02;5.72;;;16.80;40.20;;;;;;4964863;28;20047;-91
2022/03/20 07:58:12;;;;;;;11.77;5.35;;;16.80;40.40;;;;;;4966149;28;20034;-83
2022/03/20 08:00:39;;;;;;;14.48;6.10;;;16.90;41.00;;;;;;4967201;28;20034;-90
2022/03/20 08:03:06;;;;;;;12.20;5.60;;;16.90;41.00;;;;;;4967605;28;20543;-91
2022/03/20 08:05:31;;;;;;;12.85;6.30;;;16.90;41.20;;;;;;4967168;28;20463;-84
2022/03/20 08:07:58;;;;;;;12.98;5.13;;;16.90;41.70;;;;;;4964996;28;20042;-76
2022/03/20 08:10:24;;;;;;;17.83;6.60;;;16.90;42.10;;;;;;4964812;28;20529;-75
2022/03/20 08:12:50;;;;;;;18.27;6.22;;;17.00;42.50;;;;;;4965257;28;20034;-77
2022/03/20 08:15:16;;;;;;;12.25;6.03;;;17.00;42.20;;;;;;4957982;28;20114;-77
2022/03/20 08:17:45;;;;;;;12.95;5.60;;;16.90;42.20;;;;;;4963559;28;20042;-77
2022/03/20 08:20:13;;;;;;;12.43;6.45;;;16.90;42.50;;;;;;4965329;28;20039;-77
2022/03/20 08:22:39;;;;;;;10.05;5.80;;;16.90;42.90;;;;;;4963600;28;20077;-77
2022/03/20 08:25:05;;;;;;;15.07;6.70;;;16.90;42.60;;;;;;4964866;28;20039;-77
2022/03/20 08:27:40;;;;;;;14.60;5.22;;;16.80;42.50;;;;;;4965418;28;20031;-76
2022/03/20 08:30:11;;;;;;;8.93;4.75;;;16.80;42.20;;;;;;4963742;28;20192;-77
2022/03/20 08:32:38;;;;;;;11.30;5.45;;;16.80;41.80;;;;;;4965225;28;20107;-76
2022/03/20 08:35:09;;;;;;;11.93;5.07;;;16.70;41.80;;;;;;4965501;28;20040;-76
2022/03/20 08:37:35;;;;;;;10.52;4.50;;;16.70;42.00;;;;;;4976916;28;20038;-77
2022/03/20 08:40:05;;;;;;;8.32;4.00;;;16.60;41.90;;;;;;4963924;28;20038;-77
2022/03/20 08:42:31;;;;;;;9.82;4.93;;;16.60;42.00;;;;;;4965044;28;20042;-77
2022/03/20 08:44:57;;;;;;;11.23;4.78;;;16.50;42.20;;;;;;4964194;28;20092;-77
2022/03/20 08:47:25;;;;;;;11.13;4.78;;;16.60;42.40;;;;;;4965452;28;20084;-78
2022/03/20 08:49:51;;;;;;;8.02;4.50;;;16.50;41.80;;;;;;4963996;28;20058;-77
2022/03/20 08:52:17;;;;;;;12.02;4.75;;;16.50;41.80;;;;;;4965703;28;20533;-78
2022/03/20 08:54:43;;;;;;;10.95;4.50;;;16.50;41.40;;;;;;4965210;28;20035;-79
2022/03/20 08:57:10;;;;;;;11.20;4.35;;;16.40;41.40;;;;;;4965204;28;20042;-77
2022/03/20 08:59:36;;;;;;;9.32;4.28;;;16.40;41.10;;;;;;4965067;28;20039;-76
2022/03/20 09:02:02;;;;;;;9.07;4.68;;;16.40;41.00;;;;;;4964121;28;20035;-77
2022/03/20 09:04:28;;;;;;;8.63;4.10;;;16.40;41.50;;;;;;4964630;28;20441;-76
2022/03/20 09:06:54;;;;;;;6.28;3.63;;;16.30;41.90;;;;;;4976421;28;20061;-78
2022/03/20 09:09:20;;;;;;;7.07;4.05;;;16.30;42.00;;;;;;4964594;28;20062;-78
2022/03/20 09:11:47;;;;;;;12.02;3.92;;;16.30;42.30;;;;;;4964558;28;20066;-77
2022/03/20 09:14:13;;;;;;;10.18;4.07;;;16.30;42.50;;;;;;4964913;28;20035;-77
2022/03/20 09:19:23;;;;;;;7.30;3.70;;;16.30;42.10;;;;;;4963745;28;20469;-77
2022/03/20 09:21:49;;;;;;;6.28;3.58;;;16.30;41.40;;;;;;4965002;28;20096;-78
2022/03/20 09:24:15;;;;;;;6.78;3.35;;;16.30;41.00;;;;;;4964703;28;20042;-77
2022/03/20 09:26:44;;;;;;;7.22;3.78;;;16.30;41.30;;;;;;4963230;28;20126;-77
2022/03/20 09:29:16;;;;;;;7.00;3.47;;;16.20;41.30;;;;;;4974751;28;20497;-77
2022/03/20 09:31:42;;;;;;;8.13;3.38;;;16.20;41.80;;;;;;4963553;28;20062;-77
2022/03/20 09:34:08;;;;;;;6.03;3.40;;;16.20;41.80;;;;;;4964163;28;20088;-77
2022/03/20 09:36:34;;;;;;;4.93;3.22;;;16.20;41.00;;;;;;4964245;28;20465;-77
2022/03/20 09:38:59;;;;;;;4.97;3.20;;;16.20;40.80;;;;;;4964118;28;20066;-77
2022/03/20 09:41:33;;;;;;;7.20;3.33;;;16.20;39.80;;;;;;4963666;28;20077;-77
2022/03/20 09:44:05;;;;;;;9.05;3.50;;;16.20;40.40;;;;;;4962726;28;20043;-77
2022/03/20 09:46:31;;;;;;;7.82;3.17;;;16.20;40.40;;;;;;4962414;28;20076;-78
2022/03/20 09:48:58;;;;;;;4.90;3.05;;;16.20;40.40;;;;;;4972024;28;20586;-77
2022/03/20 09:51:24;;;;;;;5.68;3.00;;;16.20;39.80;;;;;;4979461;28;20112;-77
2022/03/20 09:53:51;;;;;;;5.43;3.45;;;16.10;39.70;;;;;;4976385;28;20059;-76
2022/03/20 09:56:16;;;;;;;6.45;2.70;;;16.10;39.40;;;;;;4970866;28;20570;-77
2022/03/20 09:58:42;;;;;;;5.05;3.50;;;16.10;39.90;;;;;;4961984;28;20043;-74
2022/03/20 10:01:08;;;;;;;5.15;2.72;;;16.10;39.40;;;;;;4946322;28;20524;-77
2022/03/20 10:03:35;;;;;;;5.47;2.53;;;16.10;38.50;;;;;;4912945;28;20043;-76
2022/03/20 10:06:23;;;;;;;4.93;2.45;;;16.00;37.70;;;;;;4942897;28;20133;-76
2022/03/20 10:08:55;;;;;;;4.97;2.45;;;16.00;36.80;;;;;;4949081;28;20169;-77
2022/03/20 10:11:22;;;;;;;4.45;2.17;;;16.00;36.30;;;;;;4945236;28;20046;-75
2022/03/20 10:14:10;;;;;;;7.30;2.40;;;15.90;35.90;;;;;;4948205;28;20043;-77
2022/03/20 10:16:53;;;;;;;3.33;2.30;;;15.90;36.20;;;;;;4958185;28;20143;-76
2022/03/20 10:19:22;;;;;;;5.45;2.35;;;15.80;36.60;;;;;;4943736;28;20085;-77
2022/03/20 10:21:55;;;;;;;4.70;2.03;;;15.90;37.40;;;;;;4945146;28;20498;-77
2022/03/20 10:24:23;;;;;;;5.72;1.90;;;15.90;37.70;;;;;;4968442;28;20096;-76
2022/03/20 10:27:02;;;;;;;5.55;1.90;;;15.90;37.60;;;;;;5028797;28;20039;-76
2022/03/20 10:29:30;;;;;;;5.90;1.73;;;15.90;37.60;;;;;;4970647;28;20028;-77
2022/03/20 10:32:08;;;;;;;7.75;1.90;;;15.90;37.10;;;;;;4957202;28;20047;-76
2022/03/20 10:34:46;;;;;;;6.32;2.13;;;15.90;37.70;;;;;;4949745;28;20039;-76
2022/03/20 10:37:12;;;;;;;3.63;2.20;;;15.90;38.40;;;;;;4978043;28;20038;-77
2022/03/20 10:39:41;;;;;;;4.03;1.98;;;15.90;38.00;;;;;;4963366;28;20043;-79
2022/03/20 10:42:14;;;;;;;4.35;1.90;;;15.90;38.40;;;;;;4971659;28;20049;-79
2022/03/20 10:44:41;;;;;;;5.15;2.30;;;15.90;38.00;;;;;;4973181;28;20031;-79
2022/03/20 10:47:10;;;;;;;3.97;1.95;;;15.90;37.50;;;;;;4966881;28;20035;-78
2022/03/20 10:49:37;;;;;;;7.32;2.35;;;15.90;36.90;;;;;;4953706;28;20108;-78
2022/03/20 10:52:11;;;;;;;4.97;2.70;;;15.90;36.80;;;;;;4951920;28;20038;-78
2022/03/20 10:54:44;;;;;;;7.88;2.60;;;15.90;37.00;;;;;;4947653;29;20044;-79
2022/03/20 10:57:12;;;;;;;4.90;2.10;;;15.90;36.70;;;;;;4962004;28;20077;-79
2022/03/20 10:59:40;;;;;;;5.32;2.80;;;15.90;37.30;;;;;;4948481;28;20063;-78
2022/03/20 11:02:19;;;;;;;6.80;2.67;;;15.90;37.80;;;;;;4999265;28;20033;-79
2022/03/20 11:04:45;;;;;;;4.25;2.35;;;15.90;37.20;;;;;;5027945;28;20037;-80
2022/03/20 11:07:16;;;;;;;4.43;2.47;;;15.90;37.10;;;;;;4965846;28;20081;-78
2022/03/20 11:10:00;;;;;;;6.85;2.92;;;15.90;37.00;;;;;;4965504;28;20121;-81
2022/03/20 11:12:33;;;;;;;6.88;3.08;;;15.80;37.10;;;;;;4966673;28;20043;-78
2022/03/20 11:15:03;;;;;;;5.75;2.92;;;15.80;36.90;;;;;;4969468;28;20038;-76
2022/03/20 11:17:49;;;;;;;4.03;2.42;;;15.90;36.90;;;;;;4950474;28;20536;-81
2022/03/20 11:20:18;;;;;;;5.38;2.17;;;15.90;37.40;;;;;;4968695;28;20046;-80
2022/03/20 11:22:53;;;;;;;2.38;1.77;;;15.90;36.60;;;;;;4964232;28;20042;-81
2022/03/20 11:25:24;;;;;;;4.07;1.80;;;15.80;36.10;;;;;;4968913;28;20030;-80
2022/03/20 11:28:03;;;;;;;7.15;2.33;;;15.80;36.40;;;;;;4968919;28;20046;-81
2022/03/20 11:30:34;;;;;;;5.43;2.35;;;15.80;37.10;;;;;;4968088;28;20062;-79
2022/03/20 11:33:02;;;;;;;7.47;1.77;;;15.70;37.40;;;;;;4968532;28;20039;-79
2022/03/20 11:35:33;;;;;;;6.07;1.98;;;15.80;37.40;;;;;;4968174;28;20031;-81
2022/03/20 11:38:22;;;;;;;2.85;2.03;;;15.70;37.80;;;;;;4965411;28;20035;-80
2022/03/20 11:41:07;;;;;;;3.63;1.70;;;15.80;38.00;;;;;;4967884;28;20513;-80
2022/03/20 11:43:37;;;;;;;7.15;1.77;;;15.70;38.00;;;;;;4967016;28;20046;-80
2022/03/20 11:46:21;;;;;;;6.82;2.30;;;15.80;37.90;;;;;;4967711;28;20126;-79
2022/03/20 11:49:15;;;;;;;2.08;1.25;;;15.70;37.70;;;;;;4966892;28;20524;-80
2022/03/20 11:52:01;;;;;;;8.65;2.25;;;15.70;38.40;;;;;;4967719;28;20042;-80
2022/03/20 11:54:49;;;;;;;4.55;2.00;;;15.70;39.00;;;;;;4996760;28;20562;-79
2022/03/20 11:57:24;;;;;;;7.78;2.58;;;15.70;38.60;;;;;;4965669;28;20532;-78
2022/03/20 11:59:55;;;;;;;5.55;2.40;;;15.70;38.40;;;;;;4965770;28;20607;-79
2022/03/20 12:02:29;;;;;;;5.75;2.20;;;15.70;38.80;;;;;;4965846;28;20046;-77
2022/03/20 12:05:37;;;;;;;6.45;2.08;;;15.70;38.10;;;;;;4965148;28;20043;-78
2022/03/20 12:08:29;;;;;;;9.95;2.75;;;15.70;38.10;;;;;;4965781;28;20073;-79
2022/03/20 12:11:22;;;;;;;7.60;2.58;;;15.70;38.50;;;;;;4961755;28;20130;-79
2022/03/20 12:14:30;;;;;;;8.18;2.78;;;15.70;38.90;;;;;;4966349;28;20092;-78
2022/03/20 12:16:58;;;;;;;6.45;2.08;;;15.70;38.50;;;;;;4965554;28;20035;-79
2022/03/20 12:19:38;;;;;;;9.82;2.05;;;15.70;38.30;;;;;;4966052;28;20516;-79
2022/03/20 12:22:15;;;;;;;8.13;2.50;;;15.70;38.50;;;;;;4976762;28;20061;-78
2022/03/20 12:25:03;;;;;;;7.60;1.90;;;15.60;38.70;;;;;;4966277;28;20054;-78
2022/03/20 12:27:34;;;;;;;8.77;2.35;;;15.60;39.00;;;;;;4966581;28;20035;-79
2022/03/20 12:30:07;;;;;;;7.50;2.25;;;15.70;39.60;;;;;;4966779;28;20034;-78
2022/03/20 12:32:49;;;;;;;6.78;2.10;;;15.60;39.30;;;;;;4964377;28;20575;-78
2022/03/20 12:35:21;;;;;;;7.65;2.30;;;15.60;38.80;;;;;;4966276;28;20131;-77
2022/03/20 12:37:48;;;;;;;6.35;2.58;;;15.60;38.60;;;;;;4965865;28;20122;-77
2022/03/20 12:40:19;;;;;;;6.13;2.30;;;15.60;38.70;;;;;;4966567;28;20074;-78
2022/03/20 12:42:57;;;;;;;8.15;2.80;;;15.60;39.50;;;;;;4966852;28;20121;-78
2022/03/20 12:45:24;;;;;;;8.80;2.50;;;15.60;39.60;;;;;;4977228;28;20532;-78
2022/03/20 12:48:02;;;;;;;6.07;2.10;;;15.60;40.00;;;;;;4965362;28;20039;-77
2022/03/20 12:50:33;;;;;;;5.07;2.08;;;15.60;40.00;;;;;;4966342;28;20050;-77
2022/03/20 12:53:16;;;;;;;4.53;1.33;;;15.60;40.30;;;;;;4942547;28;20035;-79
2022/03/20 12:55:47;;;;;;;7.30;2.00;;;15.60;40.50;;;;;;4964372;28;20035;-80
2022/03/20 12:58:15;;;;;;;6.50;2.08;;;15.60;40.00;;;;;;4965486;28;20042;-77
2022/03/20 13:00:43;;;;;;;3.17;1.50;;;15.60;40.20;;;;;;4965673;28;20536;-77
2022/03/20 13:03:16;;;;;;;7.43;1.98;;;15.60;40.50;;;;;;4964813;28;20043;-77
2022/03/20 13:05:52;;;;;;;6.43;1.88;;;15.60;40.60;;;;;;4964879;28;20031;-78
2022/03/20 13:08:23;;;;;;;7.57;1.85;;;15.60;40.50;;;;;;4964856;28;20041;-78
2022/03/20 13:10:50;;;;;;;5.70;1.73;;;15.60;40.50;;;;;;4958710;28;20061;-78
2022/03/20 13:13:20;;;;;;;5.22;1.83;;;15.60;40.40;;;;;;4944848;28;20435;-78
2022/03/20 13:15:48;;;;;;;4.95;2.17;;;15.60;40.20;;;;;;4957423;28;20035;-78
2022/03/20 13:18:14;;;;;;;4.80;2.17;;;15.60;40.10;;;;;;4970951;28;20458;-79
2022/03/20 13:20:43;;;;;;;4.85;1.92;;;15.50;40.60;;;;;;4973324;28;20035;-78
2022/03/20 13:23:14;;;;;;;4.22;1.90;;;15.60;40.90;;;;;;4963130;28;20050;-79
2022/03/20 13:25:43;;;;;;;3.80;2.22;;;15.60;41.20;;;;;;4950239;28;20034;-79
2022/03/20 13:28:21;;;;;;;4.28;2.58;;;15.60;40.80;;;;;;4965877;28;20030;-77